• Join FlightAware (Why Join?)
  • Login
  • US Flag 
07:31AM EDT


 

Airport Tracker/Info


-or-


 

Live Flight TrackerFlight Track Log ✈ SKW6345 ✈ 22-Dec-2013 ✈ KASE - KDEN

Flight Track Log - Related Links

Times and Time Zones

All times are in EST time to prevent confusion due to time zone crossing. See the SKW6345 flight status page for this flight to view local times or setup timezone preferences in your user account.

Time Position Orientation Groundspeed Altitude Reporting Facility
EST Latitude Longitude Course Direction KTS MPH feet Rate Location/Type
12:47PM 39.2433 -106.8742 104° East 155 178 9,300  Level Denver Center
12:48PM 39.2642 -106.9317 295° West 240 276 12,100 3,000 Climbing Denver Center
12:49PM 39.2856 -107.0064 290° West 219 252 15,600 2,700 Climbing Denver Center
12:50PM 39.3447 -107.0158 353° North 260 299 17,800 1,560 Climbing Denver Center
12:51PM 39.3899 -106.3092 101° East  Level Estimated
12:51PM 39.3656 -106.8717 79° East 367 422 18,900  Level Denver Center
12:52PM 39.4232 -106.1971 104° East  Level Estimated
12:52PM 39.3608 -106.7258 92° East 394 453 21,000  Level Denver Center
12:53PM 39.3561 -106.5817 92° East 414 476 21,000  Level Denver Center
12:54PM 39.3497 -106.4094 93° East 430 495 21,000  Level Denver Center
12:58PM 39.3175 -105.7483 51° Northeast 445 512 21,000 -60 Level Denver Center
12:59PM 39.3339 -105.6219 80° East 370 426 20,700 -420 Descending Denver Center
01:00PM 39.3817 -105.5125 61° Northeast 351 404 20,200 -780 Descending Denver Center
01:01PM 39.4394 -105.3964 57° Northeast 330 380 19,200 -1,140 Descending Denver Center
01:02PM 39.4894 -105.3072 54° Northeast 311 358 17,900 -1,260 Descending Denver Center
01:03PM 39.3985 -105.4425 51° Northeast  Level FlightAware Approximate
01:03PM 39.5375 -105.2131 56° Northeast 293 337 16,600  Level Denver Center
01:04PM 39.4631 -105.3390 51° Northeast  Level FlightAware Approximate
01:04PM 39.5847 -105.1233 56° Northeast 301 346 15,500  Level Denver Center
01:05PM 39.6358 -105.0256 56° Northeast 306 352 14,400 -1,020 Descending Denver Center
01:06PM 39.6800 -104.9394 56° Northeast 290 334 13,400 -720 Descending Denver Center
01:08PM 39.7186 -104.8658 56° Northeast 292 336 13,000 -780 Descending Denver Center
01:09PM 39.8086 -104.8411 12° North 274 315 11,900 -900 Descending Denver Center
01:10PM 39.8747 -104.8403 North 238 274 11,200 -540 Descending Denver Center
01:11PM 39.9419 -104.8383 North 225 259 10,900 -780 Descending Denver Center
01:12PM 40.0044 -104.8403 359° North 224 258 9,600 -900 Descending Denver Center
01:13PM 40.0667 -104.8403 360° North 225 259 9,100 -780 Descending Denver Center
01:14PM 40.0919 -104.7703 65° Northeast 241 277 8,100 -780 Descending Denver Center
01:15PM 40.0342 -104.7281 151° Southeast 236 272 7,600 -540 Descending Denver Center
01:16PM 39.9756 -104.6986 159° South 202 232 7,000 -720 Descending Denver Center
01:17PM 39.9325 -104.6958 177° South 158 182 6,200 -780 Descending Denver Center
01:18PM 39.8939 -104.6964 181° South 133 153 5,400 -780 Descending Denver Center